createdAt,value
2023-05-25T00:01:00.570Z,2.70
2023-05-25T00:03:32.394Z,2.20
2023-05-25T00:06:05.796Z,3.20
2023-05-25T00:08:35.787Z,2.78
2023-05-25T00:11:04.641Z,3.25
2023-05-25T00:13:34.670Z,2.80
2023-05-25T00:16:02.885Z,3.07
2023-05-25T00:18:58.705Z,3.63
2023-05-25T00:21:29.709Z,3.80
2023-05-25T00:23:59.361Z,3.00
2023-05-25T00:26:29.409Z,3.95
2023-05-25T00:29:05.468Z,4.15
2023-05-25T00:31:35.467Z,3.43
2023-05-25T00:34:06.165Z,4.20
2023-05-25T00:36:36.359Z,4.10
2023-05-25T00:39:05.954Z,4.22
2023-05-25T00:41:37.265Z,4.25
2023-05-25T00:44:10.428Z,4.00
2023-05-25T00:46:42.566Z,4.70
2023-05-25T00:49:15.181Z,4.40
2023-05-25T00:51:46.578Z,4.80
2023-05-25T00:58:01.817Z,4.57
2023-05-25T01:00:44.135Z,4.00
2023-05-25T01:03:21.637Z,4.28
2023-05-25T01:05:53.432Z,3.95
2023-05-25T01:08:43.795Z,3.83
2023-05-25T01:11:36.012Z,3.45
2023-05-25T01:14:04.547Z,4.10
2023-05-25T01:16:34.812Z,3.87
2023-05-25T01:19:08.093Z,3.77
2023-05-25T01:21:44.219Z,3.47
2023-05-25T01:24:22.576Z,3.90
2023-05-25T01:26:57.105Z,3.83
2023-05-25T01:29:29.127Z,4.20
2023-05-25T01:32:03.075Z,3.90
2023-05-25T01:34:33.466Z,4.20
2023-05-25T01:37:03.920Z,4.00
2023-05-25T01:39:33.235Z,4.32
2023-05-25T01:42:04.016Z,4.40
2023-05-25T01:44:33.425Z,4.20
2023-05-25T01:47:09.402Z,4.27
2023-05-25T01:49:47.292Z,4.37
2023-05-25T01:52:37.971Z,4.67
2023-05-25T01:55:11.354Z,3.97
2023-05-25T01:57:51.958Z,4.33
2023-05-25T02:00:21.765Z,4.47
2023-05-25T02:02:52.142Z,3.70
2023-05-25T02:05:22.819Z,3.77
2023-05-25T02:07:54.789Z,3.73
2023-05-25T02:10:27.863Z,4.30
2023-05-25T02:13:00.544Z,4.47
2023-05-25T02:15:33.836Z,3.78
2023-05-25T02:18:22.527Z,3.90
2023-05-25T02:20:52.403Z,3.93
2023-05-25T02:23:24.750Z,3.90
2023-05-25T02:25:53.164Z,4.13
2023-05-25T02:28:21.156Z,4.77
2023-05-25T02:31:10.241Z,4.17
2023-05-25T02:33:38.546Z,4.07
2023-05-25T02:36:06.992Z,4.80
2023-05-25T02:38:36.636Z,4.50
2023-05-25T02:41:06.623Z,4.13
2023-05-25T02:43:35.399Z,4.27
2023-05-25T02:46:03.456Z,5.07
2023-05-25T02:48:31.666Z,4.87
2023-05-25T02:50:59.847Z,4.70
2023-05-25T02:53:29.377Z,4.43
2023-05-25T02:56:02.252Z,5.67
2023-05-25T02:58:31.316Z,5.07
2023-05-25T03:01:00.260Z,5.10
2023-05-25T03:03:29.006Z,4.40
2023-05-25T03:05:58.235Z,5.43
2023-05-25T03:08:29.894Z,5.70
2023-05-25T03:11:02.518Z,4.60
2023-05-25T03:13:38.578Z,4.70
2023-05-25T03:16:07.368Z,5.10
2023-05-25T03:18:39.207Z,4.87
2023-05-25T03:21:09.551Z,4.73
2023-05-25T03:23:38.580Z,5.70
2023-05-25T03:26:10.743Z,7.30
2023-05-25T03:28:39.356Z,5.33
2023-05-25T03:31:07.910Z,4.90
2023-05-25T03:33:37.901Z,5.30
2023-05-25T03:36:29.091Z,5.70
2023-05-25T03:38:57.349Z,5.25
2023-05-25T03:41:27.724Z,5.60
2023-05-25T03:43:57.648Z,5.53
2023-05-25T03:46:25.905Z,5.60
2023-05-25T03:48:57.356Z,5.97
2023-05-25T03:51:25.449Z,6.03
2023-05-25T03:53:53.802Z,6.13
2023-05-25T03:56:46.796Z,5.80
2023-05-25T03:59:35.031Z,5.73
2023-05-25T04:02:03.218Z,5.55
2023-05-25T04:04:33.130Z,5.70
2023-05-25T04:07:06.693Z,6.40
2023-05-25T04:09:35.978Z,6.10
2023-05-25T04:12:05.849Z,6.20
2023-05-25T04:14:34.156Z,5.93
2023-05-25T04:17:02.787Z,5.93
2023-05-25T04:19:31.286Z,6.33
2023-05-25T04:22:01.647Z,5.70
2023-05-25T04:24:30.388Z,6.70
2023-05-25T04:27:01.263Z,6.30
2023-05-25T04:29:32.067Z,6.13
2023-05-25T04:32:02.809Z,6.90
2023-05-25T04:34:33.761Z,6.10
2023-05-25T04:37:05.187Z,6.53
2023-05-25T04:39:33.880Z,6.00
2023-05-25T04:42:04.755Z,6.43
2023-05-25T04:44:38.783Z,7.07
2023-05-25T04:47:13.936Z,6.87
2023-05-25T04:49:48.327Z,6.27
2023-05-25T04:52:20.850Z,6.00
2023-05-25T04:54:48.885Z,6.30
2023-05-25T04:57:16.941Z,6.55
2023-05-25T04:59:46.438Z,6.77
2023-05-25T05:02:14.414Z,6.33
2023-05-25T05:04:42.417Z,7.32
2023-05-25T05:07:10.412Z,7.00
2023-05-25T05:09:38.810Z,7.53
2023-05-25T05:12:09.969Z,6.97
2023-05-25T05:14:40.203Z,6.17
2023-05-25T05:17:09.986Z,6.80
2023-05-25T05:19:40.566Z,6.57
2023-05-25T05:22:09.854Z,6.20
2023-05-25T05:24:39.304Z,6.50
2023-05-25T05:27:09.411Z,6.37
2023-05-25T05:29:38.163Z,6.53
2023-05-25T05:32:09.331Z,6.57
2023-05-25T05:34:38.160Z,6.13
2023-05-25T05:37:06.927Z,5.70
2023-05-25T05:39:34.903Z,5.83
2023-05-25T05:42:02.951Z,5.90
2023-05-25T05:44:30.937Z,5.33
2023-05-25T05:47:01.769Z,6.47
2023-05-25T05:49:31.731Z,6.28
2023-05-25T05:52:00.215Z,5.57
2023-05-25T05:54:29.382Z,4.83
2023-05-25T05:56:57.517Z,4.65
2023-05-25T05:59:25.641Z,5.13
2023-05-25T06:01:56.829Z,4.63
2023-05-25T06:04:28.911Z,4.67
2023-05-25T06:06:59.989Z,4.35
2023-05-25T06:09:27.980Z,4.07
2023-05-25T06:11:56.030Z,4.55
2023-05-25T06:14:25.599Z,4.82
2023-05-25T06:16:55.663Z,4.40
2023-05-25T06:19:23.712Z,4.23
2023-05-25T06:21:51.705Z,5.07
2023-05-25T06:24:21.260Z,4.37
2023-05-25T06:26:49.375Z,4.73
2023-05-25T06:29:17.617Z,4.63
2023-05-25T06:34:28.203Z,4.93
2023-05-25T06:36:57.027Z,4.47
2023-05-25T06:39:26.741Z,4.72
2023-05-25T06:41:55.201Z,4.45
2023-05-25T06:44:23.255Z,4.78
2023-05-25T06:46:51.280Z,4.80
2023-05-25T06:49:26.611Z,4.95
2023-05-25T06:51:54.631Z,4.43
2023-05-25T06:54:23.889Z,4.30
2023-05-25T06:57:01.524Z,5.13
2023-05-25T06:59:31.061Z,4.55
2023-05-25T07:01:59.490Z,5.10
2023-05-25T07:04:28.655Z,4.90
2023-05-25T07:07:00.838Z,5.05
2023-05-25T07:09:30.213Z,4.85
2023-05-25T07:11:59.791Z,4.63
2023-05-25T07:14:28.041Z,4.25
2023-05-25T07:16:59.815Z,4.00
2023-05-25T07:19:27.945Z,3.88
2023-05-25T07:21:56.244Z,4.55
2023-05-25T07:24:24.335Z,3.73
2023-05-25T07:26:52.600Z,4.03
2023-05-25T07:29:22.230Z,4.10
2023-05-25T07:31:54.783Z,4.07
2023-05-25T07:34:23.361Z,4.20
2023-05-25T07:36:51.883Z,4.63
2023-05-25T07:39:20.231Z,5.05
2023-05-25T07:41:48.258Z,5.63
2023-05-25T07:44:17.724Z,5.35
2023-05-25T07:46:48.345Z,5.93
2023-05-25T07:49:16.959Z,7.65
2023-05-25T07:51:45.676Z,5.50
2023-05-25T07:54:13.804Z,4.85
2023-05-25T07:56:45.618Z,6.47
2023-05-25T07:59:14.408Z,5.70
2023-05-25T08:01:44.238Z,4.32
2023-05-25T08:04:14.965Z,4.20
2023-05-25T08:06:46.870Z,4.90
2023-05-25T08:09:15.767Z,4.78
2023-05-25T08:11:45.134Z,4.40
2023-05-25T08:14:13.296Z,4.50
2023-05-25T08:16:48.482Z,4.20
2023-05-25T08:19:17.876Z,4.78
2023-05-25T08:21:46.138Z,4.32
2023-05-25T08:24:14.149Z,4.05
2023-05-25T08:26:53.858Z,4.32
2023-05-25T08:29:23.463Z,4.10
2023-05-25T08:31:55.615Z,4.47
2023-05-25T08:34:24.997Z,4.22
2023-05-25T08:36:53.312Z,4.65
2023-05-25T08:39:21.502Z,4.55
2023-05-25T08:41:51.093Z,4.55
2023-05-25T08:44:20.612Z,4.28
2023-05-25T08:46:50.199Z,4.38
2023-05-25T08:49:24.392Z,3.78
2023-05-25T08:51:56.829Z,3.63
2023-05-25T08:54:30.244Z,3.97
2023-05-25T08:57:06.866Z,3.60
2023-05-25T08:59:59.628Z,3.80
2023-05-25T09:02:32.310Z,3.63
2023-05-25T09:05:02.365Z,4.22
2023-05-25T09:07:34.283Z,3.40
2023-05-25T09:10:02.936Z,3.50
2023-05-25T09:12:31.949Z,3.13
2023-05-25T09:15:00.874Z,3.40
2023-05-25T09:17:29.193Z,3.03
2023-05-25T09:19:57.573Z,2.88
2023-05-25T09:22:25.708Z,3.10
2023-05-25T09:24:57.026Z,2.83
2023-05-25T09:27:25.761Z,3.20
2023-05-25T09:30:14.783Z,3.00
2023-05-25T09:32:43.037Z,3.10
2023-05-25T09:35:13.656Z,2.95
2023-05-25T09:37:46.683Z,3.28
2023-05-25T09:40:17.729Z,3.00
2023-05-25T09:42:47.158Z,2.65
2023-05-25T09:45:15.364Z,2.80
2023-05-25T09:47:48.689Z,3.40
2023-05-25T09:50:18.035Z,4.07
2023-05-25T09:52:46.866Z,2.90
2023-05-25T09:55:16.931Z,3.20
2023-05-25T09:57:45.281Z,2.67
2023-05-25T10:00:15.176Z,2.97
2023-05-25T10:02:43.228Z,2.97
2023-05-25T10:05:12.629Z,3.50
2023-05-25T10:07:41.848Z,3.30
2023-05-25T10:10:15.329Z,3.03
2023-05-25T10:12:45.992Z,2.78
2023-05-25T10:15:14.936Z,3.20
2023-05-25T10:17:46.612Z,3.25
2023-05-25T10:20:15.988Z,3.55
2023-05-25T10:22:49.589Z,2.90
2023-05-25T10:25:23.199Z,3.15
2023-05-25T10:28:00.676Z,2.70
2023-05-25T10:30:28.797Z,4.03
2023-05-25T10:32:57.111Z,4.07
2023-05-25T10:35:28.542Z,4.00
2023-05-25T10:37:59.866Z,3.55
2023-05-25T10:40:30.382Z,3.60
2023-05-25T10:43:04.119Z,4.63
2023-05-25T10:45:32.452Z,3.08
2023-05-25T10:48:00.559Z,4.10
2023-05-25T10:50:28.929Z,4.00
2023-05-25T10:53:01.946Z,3.78
2023-05-25T10:55:43.991Z,3.47
2023-05-25T10:58:17.080Z,3.95
2023-05-25T11:00:57.988Z,3.97
2023-05-25T11:03:49.536Z,3.45
2023-05-25T11:06:19.113Z,4.05
2023-05-25T11:08:51.241Z,4.68
2023-05-25T11:11:19.321Z,4.55
2023-05-25T11:13:49.487Z,3.92
2023-05-25T11:16:22.878Z,4.63
2023-05-25T11:18:53.273Z,4.65
2023-05-25T11:21:43.814Z,4.43
2023-05-25T11:24:19.533Z,4.68
2023-05-25T11:26:55.855Z,4.70
2023-05-25T11:29:27.225Z,4.47
2023-05-25T11:31:59.946Z,4.53
2023-05-25T11:34:31.299Z,4.90
2023-05-25T11:37:02.039Z,4.13
2023-05-25T11:39:31.146Z,3.38
2023-05-25T11:42:04.338Z,3.40
2023-05-25T11:44:36.285Z,3.65
2023-05-25T11:47:10.099Z,3.10
2023-05-25T11:49:42.149Z,3.65
2023-05-25T11:52:11.234Z,3.83
2023-05-25T11:54:41.319Z,4.00
2023-05-25T11:57:16.310Z,3.55
2023-05-25T11:59:52.353Z,3.58
2023-05-25T12:02:21.199Z,3.60
2023-05-25T12:04:57.064Z,3.50
2023-05-25T12:07:26.377Z,3.08
2023-05-25T12:10:05.248Z,3.42
2023-05-25T12:12:39.717Z,4.15
2023-05-25T12:15:11.489Z,3.03
2023-05-25T12:17:42.700Z,2.90
2023-05-25T12:20:12.651Z,3.45
2023-05-25T12:22:42.273Z,3.08
2023-05-25T12:25:12.022Z,2.95
2023-05-25T12:27:41.012Z,2.83
2023-05-25T12:30:12.327Z,2.78
2023-05-25T12:33:02.357Z,2.60
2023-05-25T12:35:47.594Z,3.47
2023-05-25T12:38:18.216Z,3.05
2023-05-25T12:40:47.245Z,2.20
2023-05-25T12:43:16.953Z,2.42
2023-05-25T12:45:46.647Z,2.20
2023-05-25T12:48:14.771Z,2.83
2023-05-25T12:50:58.250Z,2.47
2023-05-25T12:53:27.296Z,2.20
2023-05-25T12:56:02.310Z,2.33
2023-05-25T12:58:30.567Z,2.28
2023-05-25T13:01:00.143Z,2.30
2023-05-25T13:03:28.437Z,1.77
2023-05-25T13:06:02.332Z,2.83
2023-05-25T13:08:30.708Z,2.33
2023-05-25T13:10:58.931Z,2.17
2023-05-25T13:13:27.033Z,2.20
2023-05-25T13:15:55.204Z,2.90
2023-05-25T13:18:24.602Z,2.58
2023-05-25T13:20:56.483Z,3.13
2023-05-25T13:23:25.248Z,2.85
2023-05-25T13:25:53.630Z,3.05
2023-05-25T13:28:21.698Z,3.50
2023-05-25T13:30:49.727Z,2.72
2023-05-25T13:33:17.765Z,2.90
2023-05-25T13:35:58.591Z,3.03
2023-05-25T13:38:27.661Z,2.75
2023-05-25T13:40:58.465Z,3.40
2023-05-25T13:43:26.725Z,3.33
2023-05-25T13:45:54.828Z,2.80
2023-05-25T13:48:23.170Z,3.22
2023-05-25T13:50:52.917Z,3.30
2023-05-25T13:53:20.953Z,3.00
2023-05-25T13:55:49.338Z,3.50
2023-05-25T13:58:17.365Z,3.03
2023-05-25T14:00:45.704Z,3.00
2023-05-25T14:03:34.133Z,3.10
2023-05-25T14:06:03.857Z,3.25
2023-05-25T14:08:32.257Z,2.83
2023-05-25T14:11:00.339Z,3.05
2023-05-25T14:13:28.379Z,2.53
2023-05-25T14:15:56.479Z,2.30
2023-05-25T14:18:24.615Z,3.10
2023-05-25T14:20:52.770Z,3.10
2023-05-25T14:23:22.536Z,3.05
2023-05-25T14:25:50.585Z,2.88
2023-05-25T14:28:18.714Z,3.40
2023-05-25T14:30:46.848Z,2.88
2023-05-25T14:33:17.323Z,3.90
2023-05-25T14:35:45.629Z,3.95
2023-05-25T14:38:13.928Z,3.22
2023-05-25T14:40:43.536Z,3.35
2023-05-25T14:43:11.797Z,4.18
2023-05-25T14:45:40.080Z,3.42
2023-05-25T14:48:16.470Z,3.20
2023-05-25T14:50:45.401Z,3.67
2023-05-25T14:53:13.668Z,3.33
2023-05-25T14:55:47.690Z,3.72
2023-05-25T14:58:17.990Z,3.22
2023-05-25T15:00:47.899Z,3.78
2023-05-25T15:03:16.095Z,4.72
2023-05-25T15:05:44.628Z,4.32
2023-05-25T15:08:13.661Z,3.75
2023-05-25T15:10:41.822Z,4.70
2023-05-25T15:13:13.785Z,4.05
2023-05-25T15:15:45.453Z,4.47
2023-05-25T15:18:14.228Z,6.00
2023-05-25T15:20:43.957Z,4.82
2023-05-25T15:23:12.091Z,4.03
2023-05-25T15:25:40.319Z,4.35
2023-05-25T15:28:08.495Z,3.85
2023-05-25T15:30:37.934Z,4.47
2023-05-25T15:33:07.449Z,4.38
2023-05-25T15:35:35.577Z,4.50
2023-05-25T15:38:03.671Z,3.63
2023-05-25T15:40:32.735Z,3.95
2023-05-25T15:43:04.674Z,4.47
2023-05-25T15:45:35.425Z,4.40
2023-05-25T15:48:10.124Z,4.38
2023-05-25T15:50:40.435Z,4.22
2023-05-25T15:53:08.831Z,3.83
2023-05-25T15:55:37.192Z,4.28
2023-05-25T15:58:06.966Z,4.93
2023-05-25T16:00:36.339Z,4.57
2023-05-25T16:03:10.925Z,5.00
2023-05-25T16:05:39.023Z,4.80
2023-05-25T16:08:07.261Z,4.53
2023-05-25T16:10:36.840Z,4.95
2023-05-25T16:13:06.431Z,4.40
2023-05-25T16:15:36.926Z,4.82
2023-05-25T16:18:05.217Z,4.20
2023-05-25T16:20:34.682Z,4.90
2023-05-25T16:23:02.767Z,4.47
2023-05-25T16:25:33.534Z,4.22
2023-05-25T16:28:01.816Z,4.65
2023-05-25T16:30:32.206Z,4.78
2023-05-25T16:33:00.292Z,4.95
2023-05-25T16:35:28.386Z,5.47
2023-05-25T16:37:57.796Z,4.93
2023-05-25T16:40:26.238Z,4.57
2023-05-25T16:42:54.276Z,4.88
2023-05-25T16:45:25.355Z,4.55
2023-05-25T16:47:56.611Z,4.45
2023-05-25T16:50:24.685Z,4.32
2023-05-25T16:52:54.197Z,4.38
2023-05-25T16:55:23.888Z,4.20
2023-05-25T16:57:59.350Z,4.07
2023-05-25T17:00:27.402Z,4.25
2023-05-25T17:02:56.511Z,4.90
2023-05-25T17:05:26.131Z,4.65
2023-05-25T17:07:55.458Z,5.22
2023-05-25T17:10:24.824Z,4.13
2023-05-25T17:12:54.740Z,4.75
2023-05-25T17:15:25.037Z,5.10
2023-05-25T17:17:56.474Z,5.07
2023-05-25T17:20:27.057Z,5.03
2023-05-25T17:22:57.863Z,4.47
2023-05-25T17:25:30.799Z,5.20
2023-05-25T17:27:59.032Z,4.55
2023-05-25T17:30:31.742Z,4.93
2023-05-25T17:33:03.539Z,4.55
2023-05-25T17:35:57.254Z,4.68
2023-05-25T17:38:27.772Z,4.80
2023-05-25T17:41:02.588Z,4.75
2023-05-25T17:43:31.002Z,4.22
2023-05-25T17:46:02.344Z,4.88
2023-05-25T17:48:32.713Z,4.10
2023-05-25T17:51:01.023Z,4.97
2023-05-25T17:53:34.583Z,5.07
2023-05-25T17:56:04.396Z,4.53
2023-05-25T17:58:33.455Z,4.50
2023-05-25T18:01:01.979Z,4.40
2023-05-25T18:03:31.744Z,4.57
2023-05-25T18:06:04.038Z,4.05
2023-05-25T18:08:33.153Z,4.80
2023-05-25T18:11:05.822Z,4.57
2023-05-25T18:13:36.025Z,4.43
2023-05-25T18:16:06.123Z,4.38
2023-05-25T18:18:36.367Z,4.53
2023-05-25T18:21:24.745Z,4.57
2023-05-25T18:23:55.168Z,4.72
2023-05-25T18:26:23.732Z,4.60
2023-05-25T18:28:55.585Z,4.90
2023-05-25T18:31:25.149Z,5.10
2023-05-25T18:33:53.714Z,5.57
2023-05-25T18:36:25.346Z,4.63
2023-05-25T18:38:56.723Z,5.10
2023-05-25T18:41:27.030Z,5.63
2023-05-25T18:43:58.877Z,5.38
2023-05-25T18:46:32.632Z,5.65
2023-05-25T18:49:02.549Z,5.07
2023-05-25T18:51:32.590Z,4.93
2023-05-25T18:54:07.904Z,5.55
2023-05-25T18:56:56.400Z,5.32
2023-05-25T18:59:27.324Z,4.80
2023-05-25T19:01:58.317Z,4.75
2023-05-25T19:04:46.774Z,4.80
2023-05-25T19:07:15.111Z,4.63
2023-05-25T19:09:46.029Z,4.55
2023-05-25T19:12:15.561Z,5.57
2023-05-25T19:14:47.022Z,5.15
2023-05-25T19:17:18.107Z,5.00
2023-05-25T19:19:47.404Z,4.70
2023-05-25T19:22:18.736Z,5.13
2023-05-25T19:25:01.248Z,5.13
2023-05-25T19:27:31.471Z,4.53
2023-05-25T19:30:04.025Z,4.50
2023-05-25T19:32:32.352Z,5.32
2023-05-25T19:35:01.232Z,5.80
2023-05-25T19:37:32.579Z,4.82
2023-05-25T19:40:00.760Z,5.38
2023-05-25T19:42:29.998Z,4.82
2023-05-25T19:45:00.376Z,4.95
2023-05-25T19:47:30.430Z,4.82
2023-05-25T19:50:19.793Z,5.28
2023-05-25T19:52:48.321Z,5.15
2023-05-25T19:55:17.264Z,5.15
2023-05-25T19:57:45.469Z,5.40
2023-05-25T20:00:25.436Z,5.10
2023-05-25T20:02:56.842Z,4.93
2023-05-25T20:05:26.186Z,4.75
2023-05-25T20:07:56.250Z,5.05
2023-05-25T20:10:24.491Z,5.30
2023-05-25T20:12:52.628Z,4.95
2023-05-25T20:15:21.553Z,5.00
2023-05-25T20:17:49.745Z,4.45
2023-05-25T20:20:19.433Z,4.85
2023-05-25T20:22:47.541Z,5.05
2023-05-25T20:25:15.791Z,4.78
2023-05-25T20:27:43.824Z,5.95
2023-05-25T20:30:13.868Z,4.47
2023-05-25T20:32:43.974Z,4.45
2023-05-25T20:35:12.556Z,4.82
2023-05-25T20:37:42.308Z,5.28
2023-05-25T20:40:10.618Z,5.07
2023-05-25T20:42:38.879Z,4.20
2023-05-25T20:45:08.069Z,4.75
2023-05-25T20:47:36.364Z,5.03
2023-05-25T20:50:07.252Z,4.22
2023-05-25T20:52:35.784Z,5.28
2023-05-25T20:55:06.179Z,5.55
2023-05-25T20:57:34.531Z,5.03
2023-05-25T21:00:23.673Z,5.13
2023-05-25T21:02:57.935Z,4.20
2023-05-25T21:05:27.154Z,5.20
2023-05-25T21:07:56.060Z,4.93
2023-05-25T21:10:25.850Z,4.85
2023-05-25T21:12:54.239Z,5.05
2023-05-25T21:15:24.319Z,5.35
2023-05-25T21:17:52.468Z,5.10
2023-05-25T21:20:20.986Z,4.45
2023-05-25T21:22:50.026Z,5.15
2023-05-25T21:25:18.838Z,4.47
2023-05-25T21:27:48.305Z,4.70
2023-05-25T21:30:19.460Z,5.35
2023-05-25T21:32:48.384Z,4.20
2023-05-25T21:35:18.012Z,4.25
2023-05-25T21:37:46.179Z,4.95
2023-05-25T21:40:14.517Z,5.03
2023-05-25T21:42:43.157Z,5.30
2023-05-25T21:45:12.977Z,5.22
2023-05-25T21:47:41.217Z,4.97
2023-05-25T21:50:09.739Z,4.43
2023-05-25T21:52:38.068Z,5.43
2023-05-25T21:55:07.027Z,5.87
2023-05-25T21:57:35.177Z,4.40
2023-05-25T22:00:03.901Z,4.82
2023-05-25T22:02:33.606Z,4.57
2023-05-25T22:05:02.168Z,5.25
2023-05-25T22:07:30.273Z,4.87
2023-05-25T22:09:58.686Z,4.78
2023-05-25T22:12:26.750Z,5.10
2023-05-25T22:14:54.943Z,5.22
2023-05-25T22:17:23.103Z,5.27
2023-05-25T22:20:06.419Z,5.07
2023-05-25T22:22:36.588Z,5.82
2023-05-25T22:25:05.170Z,5.00
2023-05-25T22:27:33.567Z,5.33
2023-05-25T22:30:01.766Z,4.20
2023-05-25T22:32:30.396Z,4.47
2023-05-25T22:34:59.967Z,5.35
2023-05-25T22:37:29.171Z,4.90
2023-05-25T22:39:57.434Z,4.68
2023-05-25T22:42:25.674Z,5.20
2023-05-25T22:44:54.701Z,4.60
2023-05-25T22:47:25.234Z,5.33
2023-05-25T22:49:54.353Z,5.63
2023-05-25T22:52:24.151Z,4.40
2023-05-25T22:54:52.239Z,4.50
2023-05-25T22:57:22.947Z,4.20
2023-05-25T22:59:52.233Z,5.37
2023-05-25T23:02:21.879Z,4.33
2023-05-25T23:04:52.878Z,4.50
2023-05-25T23:07:20.927Z,4.77
2023-05-25T23:09:50.471Z,5.18
2023-05-25T23:12:19.080Z,4.63
2023-05-25T23:14:49.392Z,5.33
2023-05-25T23:17:17.687Z,4.87
2023-05-25T23:19:45.904Z,4.50
2023-05-25T23:22:14.078Z,4.43
2023-05-25T23:24:42.159Z,4.60
2023-05-25T23:27:11.842Z,4.40
2023-05-25T23:29:39.980Z,5.53
2023-05-25T23:32:08.490Z,4.03
2023-05-25T23:34:37.849Z,3.97
2023-05-25T23:37:06.770Z,3.93
2023-05-25T23:39:34.815Z,3.97
2023-05-25T23:42:03.393Z,3.97
2023-05-25T23:44:35.498Z,4.80
2023-05-25T23:47:03.631Z,4.53
2023-05-25T23:49:34.759Z,4.50
2023-05-25T23:52:03.083Z,4.30
2023-05-25T23:54:31.206Z,4.53
2023-05-25T23:56:59.274Z,4.53
2023-05-25T23:59:27.456Z,4.53
